Bunnlevel, North Carolina
Current Conditions -  °F | °C
As of 5:35 PM on Thursday 20 Nov 2014 (Local Time) from KHRJ Reporting Station
Clear Clear  
Wind Chill: 55°   Ceiling: Unl
Heat Index: 55°   Visibility: 10mi
Dew Point: 27°   Wind: 6mph
Humidity: 34%   Direction: 230°SW
Pressure: 30.07"   Gusts: NA
Location:  35.31°N, 78.78°W
Report Text: KHRJ 202235Z AUTO 23005KT 10SM CLR 13/M03 A3007 RMK AO2 T01251030
Loading
Personal Weather Stations






























Interactive Weather Map New forecast layout! Learn more

10-Day Weather Forecast

Advertisements
Track Severe Weather on mobile